Time,TemperatureF,DewpointF,PressureIn,WindDirection,WindDirectionDegrees,WindSpeedMPH,WindSpeedGustMPH,Humidity,HourlyPrecipIn,Conditions,Clouds,dailyrainin,SoftwareType,DateUTC
2013-10-04 01:31:00,72.0,70.0,30.07,ESE,112,0.0,0.0,94,0.00,,,0.00,,2013-10-04 05:31:00,
2013-10-04 01:59:00,72.0,70.0,30.06,ESE,112,0.0,0.0,94,0.00,,,0.00,,2013-10-04 05:59:00,
2013-10-04 02:27:00,71.0,69.0,30.06,ESE,112,0.0,0.0,95,0.00,,,0.00,,2013-10-04 06:27:00,
2013-10-04 02:58:00,71.0,69.0,30.06,ESE,112,0.0,0.0,95,0.00,,,0.00,,2013-10-04 06:58:00,
2013-10-04 03:27:00,70.0,68.0,30.05,ESE,112,0.0,0.0,95,0.00,,,0.00,,2013-10-04 07:27:00,
2013-10-04 03:58:00,70.0,68.0,30.06,ESE,112,0.0,0.0,95,0.00,,,0.00,,2013-10-04 07:58:00,
2013-10-04 04:27:00,70.0,68.0,30.06,ESE,112,0.0,1.0,95,0.00,,,0.00,,2013-10-04 08:27:00,
2013-10-04 04:58:00,69.0,68.0,30.05,NW,304,0.0,2.0,95,0.00,,,0.00,,2013-10-04 08:58:00,
2013-10-04 05:27:00,69.0,68.0,30.06,NNW,332,0.0,3.0,96,0.00,,,0.00,,2013-10-04 09:27:00,
2013-10-04 06:01:00,69.0,68.0,30.05,NW,325,1.0,3.0,96,0.00,,,0.00,,2013-10-04 10:01:00,
2013-10-04 06:29:00,70.0,69.0,30.06,NW,311,0.0,3.0,96,0.00,,,0.00,,2013-10-04 10:29:00,
2013-10-04 07:01:00,70.0,69.0,30.06,NW,318,0.0,4.0,96,0.00,,,0.00,,2013-10-04 11:01:00,
2013-10-04 07:29:00,70.0,69.0,30.07,NNW,327,0.0,2.0,96,0.00,,,0.00,,2013-10-04 11:29:00,
2013-10-04 08:00:00,70.0,69.0,30.08,NNW,331,0.0,3.0,96,0.00,,,0.00,,2013-10-04 12:00:00,
2013-10-04 08:29:00,70.0,69.0,30.09,WNW,302,0.0,3.0,96,0.00,,,0.00,,2013-10-04 12:29:00,
2013-10-04 09:00:00,71.0,70.0,30.10,WNW,298,0.0,2.0,96,0.00,,,0.00,,2013-10-04 13:00:00,
2013-10-04 09:29:00,73.0,71.0,30.10,NNW,327,2.0,4.0,95,0.00,,,0.00,,2013-10-04 13:29:00,
2013-10-04 10:00:00,75.0,72.0,30.10,NW,321,1.0,5.0,90,0.00,,,0.00,,2013-10-04 14:00:00,
2013-10-04 10:29:00,75.0,72.0,30.11,NW,323,0.0,1.0,89,0.00,,,0.00,,2013-10-04 14:29:00,
2013-10-04 11:00:00,77.0,72.0,30.11,NNE,15,1.0,4.0,86,0.00,,,0.00,,2013-10-04 15:00:00,
2013-10-04 11:29:00,80.0,72.0,30.11,ENE,68,0.0,2.0,78,0.00,,,0.00,,2013-10-04 15:29:00,
2013-10-04 11:49:00,81.0,73.0,30.11,ESE,120,0.0,2.0,76,0.00,,,0.00,,2013-10-04 15:49:00,
2013-10-04 12:01:00,82.0,74.0,30.11,SE,138,0.0,3.0,76,0.00,,,0.00,,2013-10-04 16:01:00,
2013-10-04 12:29:00,83.0,73.0,30.10,ENE,69,0.0,2.0,72,0.00,,,0.00,,2013-10-04 16:29:00,
2013-10-04 13:01:00,83.0,73.0,30.10,SE,132,0.0,3.0,73,0.00,,,0.00,,2013-10-04 17:01:00,
2013-10-04 13:29:00,81.0,72.0,30.09,ESE,119,1.0,4.0,75,0.00,,,0.00,,2013-10-04 17:29:00,
2013-10-04 14:03:00,82.0,73.0,30.08,SE,146,1.0,8.0,75,0.00,,,0.00,,2013-10-04 18:03:00,
2013-10-04 14:21:00,83.0,73.0,30.07,ENE,71,1.0,4.0,73,0.00,,,0.00,,2013-10-04 18:21:00,
2013-10-04 14:31:00,83.0,73.0,30.06,SE,130,1.0,4.0,73,0.00,,,0.00,,2013-10-04 18:31:00,
2013-10-04 14:50:00,82.0,72.0,30.06,ESE,120,1.0,4.0,73,0.00,,,0.00,,2013-10-04 18:50:00,
2013-10-04 14:56:00,83.0,74.0,30.05,SE,140,0.0,4.0,74,0.00,,,0.00,,2013-10-04 18:56:00,
2013-10-04 15:12:00,83.0,73.0,30.05,SE,129,1.0,5.0,72,0.00,,,0.00,,2013-10-04 19:12:00,
2013-10-04 15:22:00,82.0,74.0,30.05,SE,126,1.0,7.0,76,0.00,,,0.00,,2013-10-04 19:22:00,
2013-10-04 15:52:00,83.0,74.0,30.05,SE,125,1.0,5.0,75,0.00,,,0.00,,2013-10-04 19:52:00,
2013-10-04 16:22:00,81.0,74.0,30.04,SE,132,3.0,9.0,80,0.00,,,0.00,,2013-10-04 20:22:00,
2013-10-04 16:53:00,80.0,73.0,30.04,SE,126,3.0,8.0,80,0.00,,,0.00,,2013-10-04 20:53:00,
2013-10-04 17:22:00,80.0,73.0,30.04,ESE,107,1.0,6.0,80,0.00,,,0.00,,2013-10-04 21:22:00,
2013-10-04 17:54:00,80.0,74.0,30.04,SE,134,1.0,5.0,81,0.00,,,0.00,,2013-10-04 21:54:00,
2013-10-04 18:23:00,78.0,72.0,30.04,SE,142,2.0,4.0,83,0.00,,,0.00,,2013-10-04 22:23:00,
2013-10-04 18:52:00,77.0,72.0,30.05,SE,136,2.0,6.0,86,0.00,,,0.00,,2013-10-04 22:52:00,
2013-10-04 19:22:00,77.0,73.0,30.04,SE,146,0.0,4.0,88,0.00,,,0.00,,2013-10-04 23:22:00,
2013-10-04 19:33:00,77.0,73.0,30.04,SE,146,0.0,4.0,88,0.00,,,0.00,,2013-10-04 23:33:00,
2013-10-04 19:53:00,76.0,73.0,30.04,SE,132,1.0,3.0,89,0.00,,,0.00,,2013-10-04 23:53:00,
2013-10-04 20:12:00,76.0,73.0,30.05,ESE,110,0.0,3.0,89,0.00,,,0.00,,2013-10-05 00:12:00,
2013-10-04 20:22:00,76.0,73.0,30.05,SE,146,0.0,3.0,89,0.00,,,0.00,,2013-10-05 00:22:00,
2013-10-04 20:42:00,76.0,73.0,30.06,SE,140,1.0,3.0,89,0.00,,,0.00,,2013-10-05 00:42:00,
2013-10-04 20:53:00,76.0,73.0,30.06,SE,136,0.0,3.0,89,0.00,,,0.00,,2013-10-05 00:53:00,
2013-10-04 21:22:00,76.0,73.0,30.06,SE,135,0.0,2.0,89,0.00,,,0.00,,2013-10-05 01:22:00,
2013-10-04 21:43:00,76.0,73.0,30.06,SSW,211,0.0,3.0,89,0.00,,,0.00,,2013-10-05 01:43:00,
2013-10-04 21:52:00,75.0,72.0,30.07,SSE,152,1.0,3.0,89,0.00,,,0.00,,2013-10-05 01:52:00,
2013-10-04 22:22:00,75.0,72.0,30.07,SSW,195,0.0,2.0,89,0.00,,,0.00,,2013-10-05 02:22:00,
2013-10-04 22:52:00,74.0,71.0,30.08,SSW,195,0.0,1.0,91,0.00,,,0.00,,2013-10-05 02:52:00,
2013-10-04 23:23:00,73.0,71.0,30.08,SSW,195,0.0,0.0,92,0.00,,,0.00,,2013-10-05 03:23:00,
2013-10-04 23:55:00,72.0,70.0,30.08,SSW,195,0.0,1.0,93,0.00,,,0.00,,2013-10-05 03:55:00,